JNB weather

OR Tambo International Airport
Johannesburg, Gauteng, South Africa

Public forecast

Using degrees Celsius for public forecast. Weather courtesy of forecast.io.

Current aviation weather report (METAR) for OR Tambo International Airport

Retrieved 2020/07/09 08:30 UTC (7 minutes ago):

FAOR 090830Z 01015KT 9999 BKN012 12/07 Q1028 BECMG SCT015

Aviation forecast (TAF) for OR Tambo International Airport

Retrieved 2020/07/09 06:00 UTC (3 hours ago):

TAF FAOR 090400Z 0906/1012 01015KT 9999 OVC005 TX18/1012Z TN05/1004Z BECMG 0906/0908 31015KT BKN025 FM091400 33008KT CAVOK PROB30 TEMPO 1002/1005 3000 BR NSC